createdAt,value
2022-09-17T00:00:19.841Z,84.02
2022-09-17T00:03:41.511Z,83.84
2022-09-17T00:07:03.772Z,84.39
2022-09-17T00:10:25.434Z,84.37
2022-09-17T00:13:47.864Z,83.25
2022-09-17T00:17:09.378Z,83.01
2022-09-17T00:20:30.879Z,83.29
2022-09-17T00:24:04.364Z,82.30
2022-09-17T00:27:25.880Z,81.54
2022-09-17T00:30:47.456Z,79.91
2022-09-17T00:34:12.259Z,79.49
2022-09-17T00:37:33.816Z,79.02
2022-09-17T00:40:55.875Z,79.42
2022-09-17T00:44:57.486Z,81.25
2022-09-17T00:48:19.007Z,83.05
2022-09-17T00:51:49.744Z,83.37
2022-09-17T00:55:28.858Z,83.63
2022-09-17T00:58:57.181Z,83.39
2022-09-17T01:02:18.949Z,84.11
2022-09-17T01:05:49.800Z,83.98
2022-09-17T01:09:26.176Z,83.47
2022-09-17T01:13:22.216Z,82.65
2022-09-17T01:17:09.158Z,81.94
2022-09-17T01:20:38.841Z,81.49
2022-09-17T01:24:09.445Z,81.04
2022-09-17T01:28:08.603Z,80.80
2022-09-17T01:31:52.900Z,80.06
2022-09-17T01:35:33.742Z,79.80
2022-09-17T01:39:15.463Z,79.21
2022-09-17T01:42:57.469Z,80.10
2022-09-17T01:46:24.779Z,81.92
2022-09-17T01:49:49.721Z,82.26
2022-09-17T01:53:15.020Z,82.61
2022-09-17T01:56:41.706Z,81.23
2022-09-17T02:00:17.429Z,82.04
2022-09-17T02:03:51.862Z,82.57
2022-09-17T02:07:20.509Z,81.40
2022-09-17T02:10:52.622Z,81.37
2022-09-17T02:14:21.413Z,79.30
2022-09-17T02:17:50.074Z,78.90
2022-09-17T02:21:17.258Z,78.35
2022-09-17T02:24:48.308Z,80.25
2022-09-17T02:29:04.624Z,80.45
2022-09-17T02:32:28.784Z,79.56
2022-09-17T02:35:52.924Z,79.10
2022-09-17T02:39:14.426Z,79.28
2022-09-17T02:43:09.943Z,79.95
2022-09-17T02:46:34.636Z,80.31
2022-09-17T02:50:34.414Z,79.35
2022-09-17T02:54:05.303Z,77.88
2022-09-17T02:58:09.629Z,79.04
2022-09-17T03:01:42.218Z,79.24
2022-09-17T03:05:06.933Z,81.01
2022-09-17T03:08:32.313Z,81.07
2022-09-17T03:11:56.027Z,80.82
2022-09-17T03:15:19.793Z,80.97
2022-09-17T03:18:41.282Z,78.90
2022-09-17T03:22:05.251Z,80.22
2022-09-17T03:25:26.711Z,80.72
2022-09-17T03:28:48.298Z,78.50
2022-09-17T03:32:12.289Z,78.07
2022-09-17T03:35:33.799Z,77.28
2022-09-17T03:39:01.142Z,77.27
2022-09-17T03:42:25.349Z,75.75
2022-09-17T03:45:48.143Z,76.44
2022-09-17T03:49:09.660Z,76.87
2022-09-17T03:52:31.312Z,77.35
2022-09-17T03:55:52.881Z,77.57
2022-09-17T03:59:14.769Z,76.92
2022-09-17T04:02:38.788Z,76.93
2022-09-17T04:06:00.541Z,76.65
2022-09-17T04:09:24.207Z,77.74
2022-09-17T04:12:45.697Z,77.61
2022-09-17T04:16:09.855Z,78.37
2022-09-17T04:19:31.430Z,78.50
2022-09-17T04:22:53.676Z,77.55
2022-09-17T04:26:15.247Z,76.65
2022-09-17T04:29:36.774Z,76.12
2022-09-17T04:32:58.246Z,75.17
2022-09-17T04:36:22.486Z,75.05
2022-09-17T04:39:46.458Z,75.10
2022-09-17T04:43:10.568Z,75.28
2022-09-17T04:46:34.387Z,74.47
2022-09-17T04:49:58.264Z,74.49
2022-09-17T04:53:20.075Z,73.26
2022-09-17T04:56:44.299Z,74.60
2022-09-17T05:00:11.061Z,74.11
2022-09-17T05:03:32.611Z,74.85
2022-09-17T05:06:54.146Z,72.54
2022-09-17T05:10:17.993Z,73.03
2022-09-17T05:13:39.486Z,74.04
2022-09-17T05:17:04.071Z,73.59
2022-09-17T05:20:28.154Z,74.44
2022-09-17T05:23:49.764Z,73.50
2022-09-17T05:27:16.203Z,72.50
2022-09-17T05:30:37.762Z,73.85
2022-09-17T05:33:59.285Z,74.34
2022-09-17T05:37:23.178Z,82.44
2022-09-17T05:40:45.507Z,79.28
2022-09-17T05:44:09.198Z,78.06
2022-09-17T05:47:30.950Z,79.45
2022-09-17T05:50:55.299Z,76.95
2022-09-17T05:54:19.159Z,75.18
2022-09-17T05:57:43.092Z,72.22
2022-09-17T06:01:04.714Z,69.94
2022-09-17T06:04:27.699Z,68.12
2022-09-17T06:07:56.364Z,65.65
2022-09-17T06:11:17.876Z,67.32
2022-09-17T06:14:39.383Z,67.10
2022-09-17T06:18:01.011Z,69.76
2022-09-17T06:21:23.110Z,71.82
2022-09-17T06:24:44.798Z,71.77
2022-09-17T06:28:10.885Z,72.19
2022-09-17T06:31:32.516Z,72.66
2022-09-17T06:34:58.932Z,73.02
2022-09-17T06:38:20.492Z,73.22
2022-09-17T06:41:45.666Z,72.44
2022-09-17T06:45:14.513Z,74.54
2022-09-17T06:48:38.815Z,75.43
2022-09-17T06:52:00.409Z,75.10
2022-09-17T06:55:26.552Z,75.00
2022-09-17T06:58:48.057Z,73.55
2022-09-17T07:02:09.911Z,73.37
2022-09-17T07:05:33.041Z,74.23
2022-09-17T07:08:54.569Z,73.67
2022-09-17T07:12:16.110Z,72.26
2022-09-17T07:15:37.612Z,70.28
2022-09-17T07:18:59.148Z,71.75
2022-09-17T07:22:20.690Z,72.39
2022-09-17T07:25:42.386Z,72.50
2022-09-17T07:29:03.935Z,71.28
2022-09-17T07:32:26.130Z,72.12
2022-09-17T07:35:58.906Z,71.69
2022-09-17T07:39:20.457Z,72.14
2022-09-17T07:42:41.992Z,73.30
2022-09-17T07:46:05.472Z,71.72
2022-09-17T07:49:27.063Z,74.34
2022-09-17T07:52:51.072Z,73.12
2022-09-17T07:56:12.602Z,73.17
2022-09-17T07:59:36.684Z,72.41
2022-09-17T08:02:58.551Z,70.94
2022-09-17T08:06:28.416Z,70.28
2022-09-17T08:09:50.243Z,69.57
2022-09-17T08:13:11.765Z,67.64
2022-09-17T08:16:35.531Z,68.03
2022-09-17T08:19:59.568Z,67.93
2022-09-17T08:23:23.431Z,67.39
2022-09-17T08:26:44.992Z,68.98
2022-09-17T08:30:07.558Z,69.97
2022-09-17T08:33:33.819Z,69.42
2022-09-17T08:36:55.429Z,69.59
2022-09-17T08:40:23.163Z,70.23
2022-09-17T08:44:09.134Z,69.41
2022-09-17T08:47:38.978Z,68.22
2022-09-17T08:51:06.608Z,69.55
2022-09-17T08:54:52.382Z,67.73
2022-09-17T08:58:36.083Z,67.90
2022-09-17T09:02:17.870Z,69.28
2022-09-17T09:05:52.484Z,70.63
2022-09-17T09:09:25.890Z,71.40
2022-09-17T09:12:48.206Z,70.64
2022-09-17T09:16:25.894Z,71.09
2022-09-17T09:19:50.070Z,72.72
2022-09-17T09:23:33.319Z,72.00
2022-09-17T09:27:26.929Z,71.92
2022-09-17T09:31:07.372Z,72.40
2022-09-17T09:34:32.109Z,72.13
2022-09-17T09:38:02.074Z,71.56
2022-09-17T09:41:31.732Z,71.53
2022-09-17T09:44:53.591Z,71.08
2022-09-17T09:48:17.940Z,70.80
2022-09-17T09:51:52.339Z,69.42
2022-09-17T09:55:26.891Z,69.42
2022-09-17T09:58:48.604Z,69.54
2022-09-17T10:02:13.074Z,69.19
2022-09-17T10:05:34.815Z,70.06
2022-09-17T10:08:56.339Z,69.35
2022-09-17T10:12:21.702Z,70.28
2022-09-17T10:15:43.226Z,69.45
2022-09-17T10:19:07.691Z,69.50
2022-09-17T10:22:37.696Z,68.09
2022-09-17T10:26:01.635Z,69.50
2022-09-17T10:29:25.901Z,69.26
2022-09-17T10:33:11.949Z,68.59
2022-09-17T10:36:41.417Z,68.02
2022-09-17T10:40:25.890Z,67.57
2022-09-17T10:43:50.999Z,66.97
2022-09-17T10:47:20.128Z,68.86
2022-09-17T10:50:41.758Z,68.01
2022-09-17T10:54:17.992Z,67.43
2022-09-17T10:58:03.227Z,67.29
2022-09-17T11:01:46.656Z,64.88
2022-09-17T11:05:26.660Z,64.18
2022-09-17T11:09:00.362Z,61.84
2022-09-17T11:12:47.628Z,61.65
2022-09-17T11:16:21.078Z,60.28
2022-09-17T11:19:51.852Z,61.60
2022-09-17T11:23:16.442Z,60.76
2022-09-17T11:26:50.113Z,61.54
2022-09-17T11:30:16.592Z,62.21
2022-09-17T11:33:56.786Z,61.34
2022-09-17T11:37:32.660Z,61.43
2022-09-17T11:41:06.613Z,61.86
2022-09-17T11:44:46.776Z,61.78
2022-09-17T11:48:17.452Z,60.21
2022-09-17T11:51:53.044Z,60.35
2022-09-17T11:55:17.639Z,60.85
2022-09-17T11:59:00.015Z,61.28
2022-09-17T12:02:55.304Z,60.13
2022-09-17T12:06:23.362Z,59.86
2022-09-17T12:09:51.972Z,59.84
2022-09-17T12:13:16.212Z,61.00
2022-09-17T12:16:39.679Z,58.88
2022-09-17T12:20:18.416Z,59.51
2022-09-17T12:24:12.913Z,59.04
2022-09-17T12:27:47.107Z,59.66
2022-09-17T12:31:17.919Z,59.30
2022-09-17T12:35:46.452Z,60.19
2022-09-17T12:39:11.234Z,62.47
2022-09-17T12:42:54.458Z,57.79
2022-09-17T12:46:21.431Z,58.50
2022-09-17T12:50:03.369Z,59.86
2022-09-17T12:53:42.566Z,59.09
2022-09-17T12:57:09.753Z,59.83
2022-09-17T13:00:39.784Z,60.15
2022-09-17T13:04:20.724Z,60.83
2022-09-17T13:07:52.604Z,61.78
2022-09-17T13:11:35.953Z,61.77
2022-09-17T13:15:15.634Z,62.18
2022-09-17T13:19:17.194Z,62.74
2022-09-17T13:22:51.483Z,62.76
2022-09-17T13:26:17.108Z,63.10
2022-09-17T13:29:47.643Z,62.70
2022-09-17T13:33:10.798Z,62.53
2022-09-17T13:36:41.769Z,61.95
2022-09-17T13:40:06.447Z,62.92
2022-09-17T13:43:28.783Z,63.37
2022-09-17T13:46:53.286Z,63.51
2022-09-17T13:50:28.348Z,63.57
2022-09-17T13:53:55.070Z,62.65
2022-09-17T13:57:16.727Z,62.52
2022-09-17T14:00:57.088Z,63.00
2022-09-17T14:04:42.961Z,63.16
2022-09-17T14:08:14.271Z,64.07
2022-09-17T14:11:37.528Z,63.87
2022-09-17T14:15:01.790Z,65.52
2022-09-17T14:18:29.448Z,63.42
2022-09-17T14:22:00.730Z,65.26
2022-09-17T14:25:32.402Z,64.20
2022-09-17T14:29:23.219Z,64.63
2022-09-17T14:33:08.995Z,63.98
2022-09-17T14:36:35.061Z,75.91
2022-09-17T14:39:56.668Z,77.75
2022-09-17T14:43:33.113Z,67.57
2022-09-17T14:47:02.332Z,61.42
2022-09-17T14:50:26.504Z,62.98
2022-09-17T14:54:10.233Z,70.01
2022-09-17T14:57:31.965Z,60.46
2022-09-17T15:00:56.147Z,68.11
2022-09-17T15:04:28.374Z,57.11
2022-09-17T15:07:49.998Z,63.93
2022-09-17T15:11:12.802Z,60.59
2022-09-17T15:14:38.578Z,60.74
2022-09-17T15:18:02.424Z,63.77
2022-09-17T15:21:39.222Z,63.92
2022-09-17T15:25:34.045Z,66.79
2022-09-17T15:28:56.831Z,61.52
2022-09-17T15:32:21.069Z,61.74
2022-09-17T15:35:59.181Z,64.02
2022-09-17T15:39:32.599Z,66.08
2022-09-17T15:43:26.912Z,61.22
2022-09-17T15:46:51.641Z,62.96
2022-09-17T15:50:18.013Z,62.82
2022-09-17T15:53:39.901Z,64.25
2022-09-17T15:57:06.679Z,64.29
2022-09-17T16:00:28.610Z,65.65
2022-09-17T16:04:13.080Z,65.94
2022-09-17T16:07:37.176Z,66.03
2022-09-17T16:10:58.679Z,65.32
2022-09-17T16:14:23.211Z,64.54
2022-09-17T16:17:48.537Z,67.26
2022-09-17T16:21:19.262Z,66.71
2022-09-17T16:24:43.540Z,66.26
2022-09-17T16:28:15.476Z,67.56
2022-09-17T16:31:37.016Z,66.90
2022-09-17T16:34:58.659Z,68.04
2022-09-17T16:38:22.846Z,68.40
2022-09-17T16:41:44.371Z,68.89
2022-09-17T16:45:07.610Z,68.30
2022-09-17T16:48:29.160Z,68.34
2022-09-17T16:51:53.001Z,68.84
2022-09-17T16:55:16.923Z,69.51
2022-09-17T16:58:38.729Z,69.84
2022-09-17T17:02:00.385Z,70.91
2022-09-17T17:05:23.167Z,71.94
2022-09-17T17:08:45.320Z,71.59
2022-09-17T17:12:09.820Z,72.22
2022-09-17T17:15:31.535Z,72.08
2022-09-17T17:18:55.558Z,72.82
2022-09-17T17:22:17.121Z,73.27
2022-09-17T17:25:38.685Z,72.01
2022-09-17T17:29:00.343Z,72.68
2022-09-17T17:32:23.944Z,72.69
2022-09-17T17:35:46.246Z,73.01
2022-09-17T17:39:08.238Z,73.91
2022-09-17T17:42:37.218Z,74.35
2022-09-17T17:46:05.088Z,75.14
2022-09-17T17:49:26.675Z,75.52
2022-09-17T17:52:51.217Z,75.21
2022-09-17T17:56:15.769Z,75.17
2022-09-17T17:59:37.302Z,74.90
2022-09-17T18:03:03.382Z,74.92
2022-09-17T18:06:28.377Z,74.04
2022-09-17T18:09:52.665Z,75.29
2022-09-17T18:13:17.168Z,76.02
2022-09-17T18:16:41.084Z,77.11
2022-09-17T18:20:04.599Z,77.88
2022-09-17T18:23:26.174Z,79.18
2022-09-17T18:26:47.704Z,78.53
2022-09-17T18:30:10.026Z,76.24
2022-09-17T18:33:31.647Z,76.47
2022-09-17T18:36:55.421Z,76.01
2022-09-17T18:40:17.145Z,76.41
2022-09-17T18:43:40.553Z,75.66
2022-09-17T18:47:04.435Z,77.19
2022-09-17T18:50:28.198Z,77.14
2022-09-17T18:53:51.771Z,75.54
2022-09-17T18:57:16.364Z,75.42
2022-09-17T19:00:40.739Z,76.17
2022-09-17T19:04:07.633Z,76.12
2022-09-17T19:07:29.379Z,75.53
2022-09-17T19:10:56.351Z,76.40
2022-09-17T19:14:21.283Z,77.06
2022-09-17T19:17:42.827Z,76.86
2022-09-17T19:21:08.709Z,77.83
2022-09-17T19:24:33.232Z,77.58
2022-09-17T19:27:57.790Z,77.45
2022-09-17T19:31:21.906Z,76.63
2022-09-17T19:34:43.542Z,78.03
2022-09-17T19:38:05.138Z,78.19
2022-09-17T19:41:26.741Z,77.64
2022-09-17T19:44:48.265Z,78.30
2022-09-17T19:48:09.791Z,78.05
2022-09-17T19:51:32.055Z,78.23
2022-09-17T19:54:55.934Z,78.60
2022-09-17T19:58:20.034Z,79.36
2022-09-17T20:01:44.886Z,78.13
2022-09-17T20:05:11.822Z,78.44
2022-09-17T20:08:35.896Z,77.52
2022-09-17T20:12:01.544Z,76.49
2022-09-17T20:15:25.371Z,77.51
2022-09-17T20:18:48.095Z,77.52
2022-09-17T20:22:14.912Z,76.51
2022-09-17T20:25:36.506Z,77.75
2022-09-17T20:28:58.044Z,77.86
2022-09-17T20:32:21.069Z,77.00
2022-09-17T20:35:42.579Z,76.89
2022-09-17T20:39:22.390Z,77.26
2022-09-17T20:42:44.757Z,76.96
2022-09-17T20:46:07.512Z,77.95
2022-09-17T20:49:32.090Z,77.87
2022-09-17T20:52:58.157Z,77.36
2022-09-17T20:56:22.368Z,76.95
2022-09-17T20:59:52.483Z,77.84
2022-09-17T21:03:14.170Z,78.23
2022-09-17T21:06:40.605Z,77.98
2022-09-17T21:10:02.131Z,78.41
2022-09-17T21:13:26.291Z,78.73
2022-09-17T21:16:49.083Z,78.59
2022-09-17T21:20:10.713Z,79.12
2022-09-17T21:23:42.142Z,80.67
2022-09-17T21:27:03.746Z,80.15
2022-09-17T21:30:27.889Z,79.33
2022-09-17T21:33:53.605Z,79.83
2022-09-17T21:37:20.043Z,79.79
2022-09-17T21:40:44.064Z,79.90
2022-09-17T21:44:08.199Z,80.83
2022-09-17T21:47:32.153Z,80.37
2022-09-17T21:50:53.943Z,79.73
2022-09-17T21:54:18.898Z,79.53
2022-09-17T21:57:40.392Z,80.14
2022-09-17T22:01:19.466Z,82.08
2022-09-17T22:04:44.404Z,81.03
2022-09-17T22:08:05.955Z,82.58
2022-09-17T22:11:32.772Z,80.98
2022-09-17T22:14:54.793Z,82.15
2022-09-17T22:18:21.659Z,82.03
2022-09-17T22:21:47.628Z,81.43
2022-09-17T22:25:11.381Z,81.44
2022-09-17T22:28:35.754Z,80.67
2022-09-17T22:31:59.627Z,79.46
2022-09-17T22:35:24.141Z,80.18
2022-09-17T22:38:50.826Z,79.50
2022-09-17T22:42:12.463Z,79.78
2022-09-17T22:45:33.941Z,79.14
2022-09-17T22:48:56.386Z,79.00
2022-09-17T22:52:22.079Z,78.88
2022-09-17T22:55:43.821Z,78.69
2022-09-17T22:59:07.867Z,78.88
2022-09-17T23:02:31.150Z,80.26
2022-09-17T23:06:15.879Z,79.37
2022-09-17T23:09:42.862Z,79.87
2022-09-17T23:13:04.390Z,79.42
2022-09-17T23:16:27.400Z,78.88
2022-09-17T23:19:48.987Z,79.32
2022-09-17T23:23:13.561Z,80.00
2022-09-17T23:26:39.671Z,79.76
2022-09-17T23:30:03.973Z,79.28
2022-09-17T23:33:25.587Z,78.72
2022-09-17T23:36:47.525Z,79.43
2022-09-17T23:40:18.199Z,79.80
2022-09-17T23:43:39.779Z,80.47
2022-09-17T23:47:01.337Z,81.13
2022-09-17T23:50:23.325Z,82.24
2022-09-17T23:53:44.874Z,82.18
2022-09-17T23:57:06.441Z,82.03
